Time;durP1;ratioP1;P1;durP2;ratioP2;P2;SDS_P1;SDS_P2;PMS_P1;PMS_P2;Temp;Humidity;BMP_temperature;BMP_pressure;BME280_temperature;BME280_humidity;BME280_pressure;Samples;Min_cycle;Max_cycle;Signal;HPM_P1;HPM_P2
2023/01/28 00:02:22;;;;;;;23.43;8.77;;;;;;;;;;6308747;22;20169;-93
2023/01/28 00:05:31;;;;;;;18.13;8.93;;;;;;;;;;6310287;22;20173;-92
2023/01/28 00:08:37;;;;;;;21.50;8.90;;;;;;;;;;6312034;22;20165;-90
2023/01/28 00:11:56;;;;;;;22.13;9.27;;;;;;;;;;6311897;22;20235;-93
2023/01/28 00:15:01;;;;;;;20.97;9.17;;;;;;;;;;6308954;22;20154;-92
2023/01/28 00:18:09;;;;;;;20.87;8.83;;;;;;;;;;6309410;22;20170;-92
2023/01/28 00:21:17;;;;;;;17.87;8.17;;;;;;;;;;6309309;22;20203;-93
2023/01/28 00:24:23;;;;;;;20.03;8.43;;;;;;;;;;6310158;22;20148;-91
2023/01/28 00:27:29;;;;;;;21.53;8.67;;;;;;;;;;6311328;22;20166;-93
2023/01/28 00:30:37;;;;;;;19.43;8.90;;;;;;;;;;6310944;22;20200;-88
2023/01/28 00:33:44;;;;;;;22.23;8.90;;;;;;;;;;6310538;22;20235;-92
2023/01/28 00:36:56;;;;;;;18.87;8.03;;;;;;;;;;6309559;22;20216;-90
2023/01/28 00:40:01;;;;;;;19.70;8.23;;;;;;;;;;6309591;22;20161;-92
2023/01/28 00:43:07;;;;;;;20.50;9.07;;;;;;;;;;6310204;22;20588;-92
2023/01/28 00:46:13;;;;;;;19.27;7.80;;;;;;;;;;6311090;22;20184;-91
2023/01/28 00:49:18;;;;;;;20.40;7.97;;;;;;;;;;6309967;22;20168;-92
2023/01/28 00:52:34;;;;;;;23.83;8.87;;;;;;;;;;6310766;22;20165;-92
2023/01/28 00:55:46;;;;;;;19.20;8.27;;;;;;;;;;6310758;22;20216;-91
2023/01/28 00:58:52;;;;;;;19.63;7.33;;;;;;;;;;6308442;22;20204;-91
2023/01/28 01:02:11;;;;;;;22.63;8.43;;;;;;;;;;6310532;22;20184;-93
2023/01/28 01:05:17;;;;;;;18.23;8.33;;;;;;;;;;6309510;22;20170;-93
2023/01/28 01:08:33;;;;;;;19.23;7.80;;;;;;;;;;6308055;22;20173;-93
2023/01/28 01:11:40;;;;;;;20.37;8.27;;;;;;;;;;6307149;22;20165;-90
2023/01/28 01:14:45;;;;;;;20.33;8.57;;;;;;;;;;6307730;22;20188;-90
2023/01/28 01:17:51;;;;;;;17.53;8.20;;;;;;;;;;6308240;22;20157;-91
2023/01/28 01:20:57;;;;;;;21.13;9.20;;;;;;;;;;6308871;22;20239;-92
2023/01/28 01:24:04;;;;;;;23.13;9.10;;;;;;;;;;6307204;22;20169;-91
2023/01/28 01:27:10;;;;;;;20.07;9.30;;;;;;;;;;6308098;22;20173;-92
2023/01/28 01:30:16;;;;;;;22.20;9.13;;;;;;;;;;6306593;22;20164;-91
2023/01/28 01:33:21;;;;;;;23.07;9.13;;;;;;;;;;6295259;22;20245;-93
2023/01/28 01:36:28;;;;;;;22.33;9.37;;;;;;;;;;6295094;22;20216;-93
2023/01/28 01:39:35;;;;;;;18.60;8.33;;;;;;;;;;6296233;22;20169;-91
2023/01/28 01:42:41;;;;;;;21.70;9.00;;;;;;;;;;6296617;22;20240;-92
2023/01/28 01:45:49;;;;;;;20.57;9.13;;;;;;;;;;6293872;22;20238;-92
2023/01/28 01:48:56;;;;;;;20.60;8.63;;;;;;;;;;6295102;22;20185;-92
2023/01/28 01:52:04;;;;;;;19.57;8.60;;;;;;;;;;6297366;22;20208;-90
2023/01/28 01:55:14;;;;;;;20.53;7.97;;;;;;;;;;6296447;22;20193;-92
2023/01/28 01:58:22;;;;;;;22.73;9.17;;;;;;;;;;6295735;22;20284;-91
2023/01/28 02:01:30;;;;;;;20.97;8.53;;;;;;;;;;6295802;22;20157;-90
2023/01/28 02:04:38;;;;;;;25.03;9.43;;;;;;;;;;6297127;22;20149;-90
2023/01/28 02:07:44;;;;;;;20.77;8.67;;;;;;;;;;6296623;22;20233;-93
2023/01/28 02:10:53;;;;;;;23.60;8.70;;;;;;;;;;6297089;22;20169;-93
2023/01/28 02:14:01;;;;;;;26.53;9.13;;;;;;;;;;6295063;22;20188;-90
2023/01/28 02:17:08;;;;;;;19.67;7.83;;;;;;;;;;6295567;22;20161;-91
2023/01/28 02:20:16;;;;;;;19.10;7.73;;;;;;;;;;6296561;22;20149;-92
2023/01/28 02:23:26;;;;;;;18.87;8.13;;;;;;;;;;6296501;22;20273;-95
2023/01/28 02:27:01;;;;;;;21.27;8.20;;;;;;;;;;6295548;22;20198;-92
2023/01/28 02:30:11;;;;;;;19.37;8.03;;;;;;;;;;6157859;22;20208;-93
2023/01/28 02:33:20;;;;;;;20.33;8.30;;;;;;;;;;6297553;22;20158;-93
2023/01/28 02:36:29;;;;;;;19.50;8.20;;;;;;;;;;6298912;22;20544;-94
2023/01/28 02:39:40;;;;;;;21.43;8.80;;;;;;;;;;6299158;22;20170;-92
2023/01/28 04:28:25;;;;;;;22.80;9.10;;;;;;;;;;6278581;22;20261;-92
2023/01/28 04:31:30;;;;;;;22.90;8.80;;;;;;;;;;6340416;22;20201;-89
2023/01/28 04:34:55;;;;;;;23.00;8.73;;;;;;;;;;6357217;22;20196;-91
2023/01/28 04:38:13;;;;;;;22.17;9.33;;;;;;;;;;6340971;22;20152;-91
2023/01/28 04:41:38;;;;;;;26.47;9.90;;;;;;;;;;6341537;22;20148;-89
2023/01/28 04:44:54;;;;;;;24.47;9.60;;;;;;;;;;6341918;22;20167;-93
2023/01/28 04:48:26;;;;;;;25.30;9.83;;;;;;;;;;6344573;22;20171;-92
2023/01/28 04:51:56;;;;;;;25.23;10.20;;;;;;;;;;6340435;22;20157;-91
2023/01/28 04:55:25;;;;;;;25.70;9.70;;;;;;;;;;6339290;22;20634;-89
2023/01/28 04:58:30;;;;;;;24.07;9.53;;;;;;;;;;6339775;22;20148;-89
2023/01/28 05:01:42;;;;;;;29.60;10.77;;;;;;;;;;6340998;22;20145;-90
2023/01/28 05:04:48;;;;;;;26.47;10.17;;;;;;;;;;6340463;22;20167;-93
2023/01/28 05:08:09;;;;;;;24.97;10.07;;;;;;;;;;6341582;22;20284;-91
2023/01/28 05:11:17;;;;;;;23.17;9.37;;;;;;;;;;6338363;22;20164;-91
2023/01/28 05:14:25;;;;;;;27.57;9.77;;;;;;;;;;6341167;22;20180;-90
2023/01/28 05:18:04;;;;;;;28.63;10.17;;;;;;;;;;6339257;22;20168;-93
2023/01/28 05:21:18;;;;;;;30.33;10.53;;;;;;;;;;6340650;22;20171;-91
2023/01/28 05:24:28;;;;;;;26.10;9.97;;;;;;;;;;6339655;22;20168;-91
2023/01/28 05:27:34;;;;;;;29.83;10.00;;;;;;;;;;6339274;22;20191;-91
2023/01/28 05:30:40;;;;;;;25.43;9.77;;;;;;;;;;6339885;22;20234;-91
2023/01/28 05:33:45;;;;;;;27.67;9.90;;;;;;;;;;6339672;22;20495;-91
2023/01/28 05:36:54;;;;;;;28.43;11.00;;;;;;;;;;6339846;22;20148;-94
2023/01/28 05:40:11;;;;;;;28.47;10.43;;;;;;;;;;6338777;22;20195;-91
2023/01/28 05:43:17;;;;;;;32.67;11.13;;;;;;;;;;6339979;22;20173;-91
2023/01/28 05:46:44;;;;;;;30.43;10.40;;;;;;;;;;6339087;22;20165;-90
2023/01/28 05:50:10;;;;;;;26.70;10.13;;;;;;;;;;6357687;22;20233;-91
2023/01/28 05:53:23;;;;;;;31.47;11.00;;;;;;;;;;6340065;22;20144;-90
2023/01/28 05:56:30;;;;;;;28.60;9.47;;;;;;;;;;6339194;22;20230;-92
2023/01/28 05:59:35;;;;;;;25.70;9.87;;;;;;;;;;6339008;22;20152;-91
2023/01/28 06:02:41;;;;;;;28.23;10.60;;;;;;;;;;6340746;22;20164;-92
2023/01/28 06:05:47;;;;;;;27.83;10.93;;;;;;;;;;6339294;22;20236;-93
2023/01/28 06:08:55;;;;;;;25.23;9.33;;;;;;;;;;6340429;22;20149;-89
2023/01/28 06:12:10;;;;;;;25.17;10.73;;;;;;;;;;6340233;22;20239;-92
2023/01/28 06:15:29;;;;;;;27.43;10.47;;;;;;;;;;6341156;22;20391;-92
2023/01/28 06:23:02;;;;;;;28.30;10.93;;;;;;;;;;6361024;22;20137;-91
2023/01/28 06:26:09;;;;;;;29.10;11.30;;;;;;;;;;6339876;22;20236;-93
2023/01/28 06:29:17;;;;;;;32.33;12.43;;;;;;;;;;6338501;22;20167;-93
2023/01/28 06:32:23;;;;;;;31.23;11.73;;;;;;;;;;6340756;22;20193;-92
2023/01/28 06:35:34;;;;;;;31.23;12.53;;;;;;;;;;6339957;22;20207;-90
2023/01/28 06:38:40;;;;;;;37.23;12.80;;;;;;;;;;6339445;22;20164;-90
2023/01/28 06:41:47;;;;;;;27.30;11.47;;;;;;;;;;6339166;22;20168;-93
2023/01/28 06:44:54;;;;;;;31.50;12.20;;;;;;;;;;6338664;22;20217;-93
2023/01/28 06:48:00;;;;;;;27.30;11.57;;;;;;;;;;6340983;22;20201;-93
2023/01/28 06:51:05;;;;;;;37.13;14.10;;;;;;;;;;6341810;22;20164;-92
2023/01/28 06:54:11;;;;;;;32.00;11.80;;;;;;;;;;6340404;22;22052;-93
2023/01/28 06:57:18;;;;;;;25.50;10.70;;;;;;;;;;6339947;22;20168;-92
2023/01/28 07:00:24;;;;;;;27.03;11.57;;;;;;;;;;6340701;22;20161;-92
2023/01/28 07:03:38;;;;;;;27.00;10.93;;;;;;;;;;6340657;22;20212;-93
2023/01/28 07:06:44;;;;;;;31.23;11.73;;;;;;;;;;6321492;22;20236;-92
2023/01/28 07:09:50;;;;;;;29.63;11.07;;;;;;;;;;6340153;22;20169;-92
2023/01/28 07:13:00;;;;;;;26.10;10.70;;;;;;;;;;6343139;22;20152;-90
2023/01/28 07:16:06;;;;;;;43.37;16.23;;;;;;;;;;6342488;22;20188;-89
2023/01/28 07:19:12;;;;;;;27.23;10.47;;;;;;;;;;6339898;22;20197;-93
2023/01/28 07:22:17;;;;;;;28.17;11.53;;;;;;;;;;6341790;22;20163;-92
2023/01/28 07:25:23;;;;;;;28.80;11.10;;;;;;;;;;6342708;22;20191;-93
2023/01/28 07:28:30;;;;;;;29.87;10.63;;;;;;;;;;6343545;22;20511;-93
2023/01/28 07:31:36;;;;;;;29.17;10.93;;;;;;;;;;6340419;22;20144;-91
2023/01/28 07:34:42;;;;;;;36.47;13.43;;;;;;;;;;6341188;22;20180;-91
2023/01/28 07:37:52;;;;;;;35.43;13.57;;;;;;;;;;6341284;22;20165;-93
2023/01/28 07:40:57;;;;;;;34.10;11.70;;;;;;;;;;6341336;22;20144;-93
2023/01/28 07:44:05;;;;;;;41.23;16.33;;;;;;;;;;6341336;22;20166;-90
2023/01/28 07:47:11;;;;;;;35.80;15.43;;;;;;;;;;6340665;22;20211;-92
2023/01/28 07:53:39;;;;;;;32.47;12.53;;;;;;;;;;6343151;22;20164;-93
2023/01/28 07:56:45;;;;;;;28.90;10.77;;;;;;;;;;6343417;22;20631;-93
2023/01/28 07:59:52;;;;;;;33.20;12.30;;;;;;;;;;6343469;22;20161;-93
2023/01/28 08:02:58;;;;;;;32.27;11.77;;;;;;;;;;6342501;22;20179;-91
2023/01/28 08:06:04;;;;;;;30.53;11.50;;;;;;;;;;6342880;22;20148;-93
2023/01/28 08:09:10;;;;;;;31.63;12.03;;;;;;;;;;6340397;22;20160;-93
2023/01/28 08:12:15;;;;;;;28.27;10.60;;;;;;;;;;6342339;22;20200;-91
2023/01/28 08:15:23;;;;;;;35.33;12.17;;;;;;;;;;6342198;22;20191;-90
2023/01/28 08:18:29;;;;;;;28.03;11.57;;;;;;;;;;6341126;22;20168;-91
2023/01/28 08:21:36;;;;;;;32.50;12.07;;;;;;;;;;6343645;22;20175;-91
2023/01/28 08:24:42;;;;;;;34.80;12.73;;;;;;;;;;6342293;22;20172;-90
2023/01/28 08:27:48;;;;;;;34.43;12.37;;;;;;;;;;6338956;22;20164;-91
2023/01/28 08:30:57;;;;;;;31.67;12.60;;;;;;;;;;6340087;22;20161;-91
2023/01/28 08:34:03;;;;;;;35.23;12.23;;;;;;;;;;6341787;22;20233;-91
2023/01/28 08:37:08;;;;;;;30.47;12.80;;;;;;;;;;6344496;22;20163;-92
2023/01/28 08:40:14;;;;;;;33.43;12.80;;;;;;;;;;6342199;22;20206;-92
2023/01/28 08:43:20;;;;;;;35.20;12.80;;;;;;;;;;6342027;22;20191;-93
2023/01/28 08:46:29;;;;;;;32.47;12.93;;;;;;;;;;6340998;22;20163;-92
2023/01/28 08:52:56;;;;;;;38.37;14.27;;;;;;;;;;6342011;22;20141;-91
2023/01/28 08:56:02;;;;;;;36.27;14.33;;;;;;;;;;6343624;22;20200;-90
2023/01/28 08:59:09;;;;;;;41.87;15.77;;;;;;;;;;6342761;22;20188;-92
2023/01/28 09:02:16;;;;;;;38.73;13.73;;;;;;;;;;6342042;22;20148;-92
2023/01/28 09:05:22;;;;;;;56.30;16.17;;;;;;;;;;6342344;22;20287;-93
2023/01/28 09:08:28;;;;;;;42.73;15.67;;;;;;;;;;6342408;22;20171;-93
2023/01/28 09:12:15;;;;;;;34.50;14.63;;;;;;;;;;6340156;22;20484;-90
2023/01/28 09:15:23;;;;;;;35.87;14.57;;;;;;;;;;6341923;22;20222;-91
2023/01/28 09:18:30;;;;;;;29.53;12.40;;;;;;;;;;6342231;22;20209;-92
2023/01/28 09:21:36;;;;;;;34.00;13.00;;;;;;;;;;6342464;22;20156;-92
2023/01/28 09:24:41;;;;;;;28.10;12.10;;;;;;;;;;6342139;22;20583;-93
2023/01/28 09:27:47;;;;;;;35.07;13.17;;;;;;;;;;6341011;22;20164;-91
2023/01/28 09:30:56;;;;;;;29.73;13.00;;;;;;;;;;6341728;22;20156;-91
2023/01/28 11:58:00;;;;;;;31.40;13.00;;;;;;;;;;6354319;22;20209;-90
2023/01/28 12:01:25;;;;;;;29.30;12.30;;;;;;;;;;6344314;22;20175;-90
2023/01/28 12:04:44;;;;;;;32.77;13.30;;;;;;;;;;6344891;22;20145;-91
2023/01/28 12:07:55;;;;;;;34.50;13.07;;;;;;;;;;6343433;22;20148;-89
2023/01/28 12:11:11;;;;;;;35.20;13.90;;;;;;;;;;6343957;22;20144;-91
2023/01/28 12:14:24;;;;;;;31.33;13.87;;;;;;;;;;6345453;22;20169;-90
2023/01/28 12:17:40;;;;;;;29.77;13.63;;;;;;;;;;6342908;22;20170;-90
2023/01/28 12:20:59;;;;;;;33.90;13.27;;;;;;;;;;6344796;22;20191;-90
2023/01/28 12:24:11;;;;;;;30.47;13.30;;;;;;;;;;6344431;22;20160;-91
2023/01/28 12:31:02;;;;;;;32.63;13.63;;;;;;;;;;6342905;22;20242;-90
2023/01/28 12:34:40;;;;;;;29.03;13.37;;;;;;;;;;6342210;22;20250;-92
2023/01/28 12:38:02;;;;;;;32.87;14.43;;;;;;;;;;6361099;22;20196;-89
2023/01/28 12:41:11;;;;;;;35.53;14.37;;;;;;;;;;6341627;22;20165;-89
2023/01/28 12:44:22;;;;;;;62.27;26.13;;;;;;;;;;6342123;22;20602;-89
2023/01/28 12:47:30;;;;;;;96.97;34.87;;;;;;;;;;6338494;22;20238;-88
2023/01/28 12:50:39;;;;;;;41.57;16.53;;;;;;;;;;6338388;22;20160;-91
2023/01/28 12:53:48;;;;;;;34.97;14.53;;;;;;;;;;6337932;22;20168;-92
2023/01/28 12:56:55;;;;;;;34.93;14.73;;;;;;;;;;6323859;22;20507;-91
2023/01/28 13:00:16;;;;;;;37.17;16.10;;;;;;;;;;6323587;22;20247;-91
2023/01/28 13:03:25;;;;;;;35.20;13.63;;;;;;;;;;6325769;22;20184;-90
2023/01/28 13:06:34;;;;;;;34.57;14.27;;;;;;;;;;6324238;22;20173;-91
2023/01/28 13:09:42;;;;;;;32.07;14.00;;;;;;;;;;6324409;22;20161;-89
2023/01/28 13:12:54;;;;;;;36.10;14.93;;;;;;;;;;6322638;22;20162;-91
2023/01/28 13:15:59;;;;;;;29.50;13.40;;;;;;;;;;6323268;22;20189;-89
2023/01/28 13:19:08;;;;;;;27.73;12.17;;;;;;;;;;6324266;22;20172;-91
2023/01/28 13:22:25;;;;;;;32.13;13.50;;;;;;;;;;6323685;22;20204;-89
2023/01/28 13:25:33;;;;;;;32.37;13.80;;;;;;;;;;6325236;22;20164;-90
2023/01/28 13:28:41;;;;;;;34.30;13.23;;;;;;;;;;6323022;22;20231;-91
2023/01/28 13:31:47;;;;;;;34.80;13.83;;;;;;;;;;6323125;22;20200;-88
2023/01/28 13:34:58;;;;;;;33.07;13.93;;;;;;;;;;6325191;22;20165;-89
2023/01/28 13:38:08;;;;;;;31.47;13.17;;;;;;;;;;6323650;22;20165;-91
2023/01/28 13:41:13;;;;;;;34.87;13.33;;;;;;;;;;6323677;22;20160;-90
2023/01/28 13:44:28;;;;;;;29.37;12.97;;;;;;;;;;6324919;22;20239;-88
2023/01/28 13:47:35;;;;;;;35.23;13.30;;;;;;;;;;6325280;22;20202;-90
2023/01/28 13:54:02;;;;;;;35.70;14.53;;;;;;;;;;6326167;22;20243;-90
2023/01/28 13:57:25;;;;;;;33.83;13.30;;;;;;;;;;6326534;22;20221;-90
2023/01/28 14:00:36;;;;;;;31.93;13.57;;;;;;;;;;6326608;22;20169;-89
2023/01/28 14:04:12;;;;;;;33.17;13.43;;;;;;;;;;6328344;22;20180;-90
2023/01/28 14:07:41;;;;;;;33.87;12.87;;;;;;;;;;6326329;22;20172;-88
2023/01/28 14:14:52;;;;;;;31.50;13.20;;;;;;;;;;6325121;22;20229;-91
2023/01/28 14:17:58;;;;;;;27.30;11.50;;;;;;;;;;6326881;22;20164;-90
2023/01/28 14:21:08;;;;;;;33.83;14.03;;;;;;;;;;6324116;22;20269;-92
2023/01/28 14:24:19;;;;;;;39.33;14.57;;;;;;;;;;6324473;22;20615;-90
2023/01/28 14:27:27;;;;;;;33.17;13.90;;;;;;;;;;6326011;22;20192;-91
2023/01/28 14:30:41;;;;;;;33.93;13.57;;;;;;;;;;6329065;22;20214;-91
2023/01/28 14:33:53;;;;;;;38.30;13.10;;;;;;;;;;6331941;22;20216;-91
2023/01/28 14:37:08;;;;;;;52.53;19.40;;;;;;;;;;6330147;22;20200;-91
2023/01/28 14:40:16;;;;;;;34.07;13.50;;;;;;;;;;6331758;22;20184;-90
2023/01/28 14:46:47;;;;;;;34.37;13.63;;;;;;;;;;6352002;22;20165;-90
2023/01/28 15:37:15;;;;;;;61.67;24.77;;;;;;;;;;6330989;22;20216;-91
2023/01/28 15:47:16;;;;;;;38.10;14.17;;;;;;;;;;6345810;22;20153;-91
2023/01/28 15:50:31;;;;;;;39.03;15.40;;;;;;;;;;6347164;22;20180;-89
2023/01/28 15:53:46;;;;;;;35.50;14.80;;;;;;;;;;6345629;22;20604;-89
2023/01/28 15:56:56;;;;;;;38.10;14.07;;;;;;;;;;6344935;22;20192;-92
2023/01/28 16:00:05;;;;;;;40.30;16.07;;;;;;;;;;6345103;22;20148;-92
2023/01/28 16:03:20;;;;;;;40.47;16.13;;;;;;;;;;6363672;22;20156;-90
2023/01/28 16:53:31;;;;;;;43.07;15.80;;;;;;;;;;6324652;22;20209;-91
2023/01/28 16:56:36;;;;;;;45.90;16.50;;;;;;;;;;6341676;22;20188;-92
2023/01/28 16:59:42;;;;;;;42.57;16.53;;;;;;;;;;6343726;22;20218;-90
2023/01/28 17:09:05;;;;;;;42.67;15.77;;;;;;;;;;6300169;22;20184;31
2023/01/28 17:12:13;;;;;;;42.13;17.37;;;;;;;;;;6247501;22;20166;-90
2023/01/28 17:15:18;;;;;;;52.37;18.37;;;;;;;;;;6244652;22;20161;-89
2023/01/28 17:18:24;;;;;;;40.70;15.87;;;;;;;;;;6247360;22;20166;-89
2023/01/28 17:21:30;;;;;;;41.70;15.90;;;;;;;;;;6247668;22;20170;-89
2023/01/28 17:24:35;;;;;;;41.47;15.50;;;;;;;;;;6247639;22;20504;-88
2023/01/28 17:27:42;;;;;;;49.27;17.13;;;;;;;;;;6248367;22;20211;-90
2023/01/28 17:30:47;;;;;;;44.73;16.97;;;;;;;;;;6245855;22;20290;-88
2023/01/28 17:33:54;;;;;;;44.63;17.03;;;;;;;;;;6246759;22;20174;-90
2023/01/28 17:37:01;;;;;;;39.77;15.17;;;;;;;;;;6246514;22;20194;-90
2023/01/28 17:40:07;;;;;;;49.60;19.40;;;;;;;;;;6245380;23;20194;-90
2023/01/28 17:43:14;;;;;;;47.50;17.83;;;;;;;;;;6246642;22;20169;-91
2023/01/28 17:46:19;;;;;;;52.00;19.20;;;;;;;;;;6244351;22;20166;-88
2023/01/28 17:49:25;;;;;;;50.20;18.83;;;;;;;;;;6246335;22;20146;-90
2023/01/28 17:52:30;;;;;;;44.87;17.60;;;;;;;;;;6245324;22;20226;-91
2023/01/28 17:55:36;;;;;;;51.67;17.40;;;;;;;;;;6244506;22;20162;-87
2023/01/28 17:58:42;;;;;;;48.57;18.60;;;;;;;;;;6245717;22;20206;-89
2023/01/28 18:01:48;;;;;;;56.50;20.03;;;;;;;;;;6245894;22;20229;-90
2023/01/28 18:04:54;;;;;;;89.07;27.10;;;;;;;;;;6246066;22;20154;-89
2023/01/28 18:07:59;;;;;;;49.87;19.07;;;;;;;;;;6249082;22;20166;-89
2023/01/28 18:11:07;;;;;;;47.43;18.03;;;;;;;;;;6274868;22;20284;-88
2023/01/28 18:14:15;;;;;;;56.10;19.87;;;;;;;;;;6277045;22;20165;-90
2023/01/28 18:17:25;;;;;;;49.43;18.40;;;;;;;;;;6277018;22;20200;-91
2023/01/28 18:20:31;;;;;;;54.27;18.80;;;;;;;;;;6283893;22;20170;-89
2023/01/28 18:23:40;;;;;;;51.60;17.90;;;;;;;;;;6281267;22;20197;-90
2023/01/28 18:26:46;;;;;;;45.17;18.27;;;;;;;;;;6279543;22;20221;-92
2023/01/28 18:29:53;;;;;;;45.77;18.30;;;;;;;;;;6279612;22;20150;-91
2023/01/28 18:32:59;;;;;;;49.87;17.77;;;;;;;;;;6278653;22;20246;-92
2023/01/28 18:36:06;;;;;;;52.87;17.97;;;;;;;;;;6278652;22;20150;-93
2023/01/28 18:39:12;;;;;;;49.87;17.40;;;;;;;;;;6278821;22;20223;-88
2023/01/28 18:42:19;;;;;;;46.37;17.33;;;;;;;;;;6277462;22;20162;-90
2023/01/28 18:45:28;;;;;;;50.13;18.63;;;;;;;;;;6277850;22;20197;-90
2023/01/28 18:48:34;;;;;;;52.67;18.70;;;;;;;;;;6278235;22;20154;-90
2023/01/28 18:51:42;;;;;;;47.90;18.87;;;;;;;;;;6279537;22;20215;-91
2023/01/28 18:54:48;;;;;;;59.73;21.40;;;;;;;;;;6278838;22;20173;-91
2023/01/28 18:57:55;;;;;;;44.57;17.73;;;;;;;;;;6276007;22;20209;-88
2023/01/28 19:01:07;;;;;;;39.50;16.67;;;;;;;;;;6276839;22;20173;-90
2023/01/28 19:04:14;;;;;;;46.10;17.53;;;;;;;;;;6277309;22;20166;-90
2023/01/28 19:07:21;;;;;;;47.90;17.70;;;;;;;;;;6298587;22;20177;-89
2023/01/28 19:10:27;;;;;;;47.27;18.17;;;;;;;;;;6287388;22;20189;-88
2023/01/28 19:13:34;;;;;;;51.13;19.67;;;;;;;;;;6293974;22;20157;-88
2023/01/28 19:16:41;;;;;;;43.73;17.13;;;;;;;;;;6294982;22;20185;-92
2023/01/28 19:19:46;;;;;;;48.97;17.80;;;;;;;;;;6295897;22;20166;-90
2023/01/28 19:22:53;;;;;;;45.77;17.20;;;;;;;;;;6298203;22;20146;-90
2023/01/28 19:25:58;;;;;;;48.60;18.53;;;;;;;;;;6297274;22;20165;-88
2023/01/28 19:29:04;;;;;;;52.43;18.13;;;;;;;;;;6296801;22;20224;-91
2023/01/28 19:32:15;;;;;;;51.47;18.43;;;;;;;;;;6297848;22;20174;-91
2023/01/28 19:35:23;;;;;;;46.47;17.00;;;;;;;;;;6297185;22;20488;-89
2023/01/28 19:38:36;;;;;;;46.60;17.53;;;;;;;;;;6297674;22;20213;-93
2023/01/28 19:41:43;;;;;;;47.17;17.93;;;;;;;;;;6296526;22;20166;-93
2023/01/28 19:44:52;;;;;;;50.53;18.57;;;;;;;;;;6297356;22;20170;-90
2023/01/28 19:48:00;;;;;;;50.67;18.23;;;;;;;;;;6298273;22;20173;-91
2023/01/28 19:51:07;;;;;;;49.20;18.67;;;;;;;;;;6295300;22;20166;-91
2023/01/28 19:54:13;;;;;;;45.70;17.83;;;;;;;;;;6296861;22;20173;-89
2023/01/28 19:57:18;;;;;;;46.83;18.07;;;;;;;;;;6297629;22;20201;-91
2023/01/28 20:00:24;;;;;;;53.20;19.37;;;;;;;;;;6294290;22;20161;-90
2023/01/28 20:03:30;;;;;;;51.37;17.73;;;;;;;;;;6297262;22;20157;-92
2023/01/28 20:06:41;;;;;;;51.37;19.20;;;;;;;;;;6296056;22;20169;-91
2023/01/28 20:09:47;;;;;;;48.87;18.30;;;;;;;;;;6296749;22;20233;-90
2023/01/28 20:13:02;;;;;;;48.83;18.17;;;;;;;;;;6278095;22;20178;-90
2023/01/28 20:16:08;;;;;;;48.33;17.83;;;;;;;;;;6278287;22;20170;-91
2023/01/28 20:19:22;;;;;;;43.00;17.57;;;;;;;;;;6278838;22;20174;-92
2023/01/28 20:22:27;;;;;;;44.07;17.90;;;;;;;;;;6296936;22;20165;-93
2023/01/28 20:25:34;;;;;;;47.97;17.47;;;;;;;;;;6278515;22;20653;-89
2023/01/28 20:28:40;;;;;;;51.93;17.87;;;;;;;;;;6277711;22;20210;-90
2023/01/28 20:31:45;;;;;;;51.23;17.90;;;;;;;;;;6276011;22;20165;-88
2023/01/28 20:34:53;;;;;;;42.03;16.80;;;;;;;;;;6280633;22;20173;-92
2023/01/28 20:38:02;;;;;;;48.40;16.63;;;;;;;;;;6276376;22;20209;-91
2023/01/28 20:41:08;;;;;;;49.63;18.77;;;;;;;;;;6278621;22;20214;-90
2023/01/28 20:44:14;;;;;;;49.50;20.63;;;;;;;;;;6279291;22;20216;-90
2023/01/28 20:47:20;;;;;;;54.00;19.77;;;;;;;;;;6276737;22;20170;-89
2023/01/28 20:50:29;;;;;;;45.33;18.87;;;;;;;;;;6279613;22;20189;-90
2023/01/28 20:53:37;;;;;;;46.87;17.97;;;;;;;;;;6278494;22;20166;-90
2023/01/28 20:56:43;;;;;;;49.50;20.43;;;;;;;;;;6278614;22;20212;-91
2023/01/28 20:59:48;;;;;;;62.67;22.80;;;;;;;;;;6277858;22;20157;-92
2023/01/28 21:02:56;;;;;;;49.53;19.63;;;;;;;;;;6277824;22;20146;-91
2023/01/28 21:06:03;;;;;;;51.93;19.53;;;;;;;;;;6278126;22;20166;-91
2023/01/28 21:09:14;;;;;;;52.83;20.13;;;;;;;;;;6277806;22;20233;-90
2023/01/28 21:12:23;;;;;;;51.83;19.93;;;;;;;;;;6278787;22;20226;-94
2023/01/28 21:15:30;;;;;;;53.90;21.50;;;;;;;;;;6280295;22;20169;-91
2023/01/28 21:18:36;;;;;;;58.20;22.27;;;;;;;;;;6278398;22;20213;-90
2023/01/28 21:21:44;;;;;;;52.27;20.30;;;;;;;;;;6279441;22;20225;-90
2023/01/28 21:24:52;;;;;;;53.33;21.53;;;;;;;;;;6278310;22;20174;-90
2023/01/28 21:27:59;;;;;;;52.97;21.17;;;;;;;;;;6280473;22;20166;-91
2023/01/28 21:31:06;;;;;;;48.30;19.90;;;;;;;;;;6280640;22;20162;-93
2023/01/28 21:34:13;;;;;;;54.43;20.43;;;;;;;;;;6278960;22;20216;-91
2023/01/28 21:37:21;;;;;;;52.33;19.50;;;;;;;;;;6276953;22;20193;-93
2023/01/28 21:40:29;;;;;;;54.53;20.50;;;;;;;;;;6277576;22;20153;-92
2023/01/28 21:43:50;;;;;;;56.20;21.83;;;;;;;;;;6279546;22;20165;-90
2023/01/28 21:46:56;;;;;;;54.00;19.70;;;;;;;;;;6297111;22;20224;-92
2023/01/28 21:50:02;;;;;;;49.47;18.93;;;;;;;;;;6278771;22;20165;-89
2023/01/28 21:53:13;;;;;;;50.23;19.17;;;;;;;;;;6279033;22;20150;-92
2023/01/28 21:56:19;;;;;;;54.30;20.83;;;;;;;;;;6298264;22;20162;-93
2023/01/28 21:59:32;;;;;;;51.13;18.93;;;;;;;;;;6279158;22;20169;-89
2023/01/28 22:02:37;;;;;;;53.03;19.33;;;;;;;;;;6277709;22;20628;-92
2023/01/28 22:05:43;;;;;;;47.13;17.83;;;;;;;;;;6277071;22;20169;-90
2023/01/28 22:08:50;;;;;;;48.83;18.30;;;;;;;;;;6274637;22;20169;-91
2023/01/28 22:11:56;;;;;;;59.47;23.33;;;;;;;;;;6278101;22;20218;-93
2023/01/28 22:15:03;;;;;;;50.87;19.17;;;;;;;;;;6279317;22;20229;-92
2023/01/28 22:18:15;;;;;;;50.30;19.37;;;;;;;;;;6280237;22;20232;-92
2023/01/28 22:21:22;;;;;;;49.20;18.67;;;;;;;;;;6280394;22;20173;-93
2023/01/28 22:24:53;;;;;;;45.60;18.43;;;;;;;;;;6279135;22;20197;-93
2023/01/28 22:28:01;;;;;;;47.03;17.50;;;;;;;;;;6278759;22;20259;-91
2023/01/28 22:31:09;;;;;;;44.33;17.47;;;;;;;;;;6280731;22;20188;-91
2023/01/28 23:09:37;;;;;;;54.57;19.87;;;;;;;;;;6356087;22;20217;-90
2023/01/28 23:12:46;;;;;;;43.87;17.80;;;;;;;;;;6343535;22;20173;-91
2023/01/28 23:26:07;;;;;;;44.13;16.67;;;;;;;;;;6340369;22;20222;-91
2023/01/28 23:29:13;;;;;;;38.27;15.67;;;;;;;;;;6340371;22;20492;-93
2023/01/28 23:32:19;;;;;;;42.00;17.50;;;;;;;;;;6339556;22;20619;-90
2023/01/28 23:35:25;;;;;;;35.87;14.90;;;;;;;;;;6338969;22;20175;-91
2023/01/28 23:38:30;;;;;;;29.23;12.03;;;;;;;;;;6340255;22;20230;-91
2023/01/28 23:41:38;;;;;;;34.40;12.93;;;;;;;;;;6337049;22;20164;-93
2023/01/28 23:44:43;;;;;;;29.33;11.60;;;;;;;;;;6337783;22;20155;-91
2023/01/28 23:47:51;;;;;;;14.53;7.23;;;;;;;;;;6339041;22;20168;-91
2023/01/28 23:50:59;;;;;;;17.30;7.33;;;;;;;;;;6343933;22;20164;-89
2023/01/28 23:54:05;;;;;;;26.17;9.00;;;;;;;;;;6344702;22;20169;-92
2023/01/28 23:57:13;;;;;;;20.97;9.13;;;;;;;;;;6342347;22;20160;-90
